createdAt,value
2022-09-30T06:08:25.773Z,7.30
2022-09-30T06:11:01.201Z,7.60
2022-09-30T06:13:30.588Z,8.30
2022-09-30T06:16:17.175Z,7.30
2022-09-30T06:18:48.692Z,7.10
2022-09-30T06:21:18.804Z,6.00
2022-09-30T06:23:47.742Z,7.10
2022-09-30T06:26:16.885Z,6.70
2022-09-30T06:28:46.088Z,7.50
2022-09-30T06:31:15.040Z,7.10
2022-09-30T06:33:44.586Z,6.50
2022-09-30T06:36:13.578Z,7.10
2022-09-30T06:38:42.821Z,6.90
2022-09-30T06:41:12.851Z,6.70
2022-09-30T06:43:45.703Z,6.80
2022-09-30T06:46:30.875Z,7.20
2022-09-30T06:49:12.225Z,6.30
2022-09-30T06:51:42.845Z,7.00
2022-09-30T06:54:13.053Z,6.80
2022-09-30T06:56:41.972Z,6.90
2022-09-30T06:59:11.777Z,6.20
2022-09-30T07:01:42.397Z,6.80
2022-09-30T07:04:11.518Z,6.80
2022-09-30T07:06:42.270Z,6.40
2022-09-30T07:09:12.715Z,6.20
2022-09-30T07:11:42.391Z,6.20
2022-09-30T07:14:12.983Z,6.10
2022-09-30T07:16:44.398Z,5.70
2022-09-30T07:19:14.172Z,5.80
2022-09-30T07:21:51.011Z,5.70
2022-09-30T07:24:20.949Z,5.80
2022-09-30T07:26:50.112Z,5.50
2022-09-30T07:29:19.036Z,4.80
2022-09-30T07:31:51.027Z,5.10
2022-09-30T07:34:20.632Z,5.30
2022-09-30T07:36:50.099Z,4.40
2022-09-30T07:39:19.122Z,5.00
2022-09-30T07:41:48.081Z,4.80
2022-09-30T07:44:16.975Z,4.70
2022-09-30T07:46:47.562Z,4.60
2022-09-30T07:49:23.610Z,4.50
2022-09-30T07:51:56.275Z,4.60
2022-09-30T07:54:28.973Z,4.00
2022-09-30T07:57:15.943Z,4.00
2022-09-30T07:59:50.757Z,3.90
2022-09-30T08:02:20.208Z,4.00
2022-09-30T08:04:49.342Z,3.40
2022-09-30T08:07:18.954Z,2.90
2022-09-30T08:09:48.670Z,2.80
2022-09-30T08:12:17.955Z,3.10
2022-09-30T08:14:46.846Z,3.30
2022-09-30T08:17:16.391Z,3.00
2022-09-30T08:19:47.023Z,3.20
2022-09-30T08:22:16.443Z,3.20
2022-09-30T08:24:45.688Z,2.90
2022-09-30T08:27:15.579Z,3.60
2022-09-30T08:29:55.110Z,3.10
2022-09-30T08:32:25.180Z,3.00
2022-09-30T08:34:54.728Z,2.70
2022-09-30T08:37:23.776Z,3.10
2022-09-30T08:39:53.690Z,2.90
2022-09-30T08:42:40.571Z,2.60
2022-09-30T08:45:23.464Z,2.50
2022-09-30T08:48:07.426Z,2.50
2022-09-30T08:50:57.770Z,2.80
2022-09-30T08:53:30.329Z,3.60
2022-09-30T08:56:03.096Z,3.00
2022-09-30T08:58:35.454Z,3.00
2022-09-30T09:01:12.231Z,3.00
2022-09-30T09:03:47.761Z,2.90
2022-09-30T09:06:27.185Z,3.00
2022-09-30T09:09:18.189Z,2.80
2022-09-30T09:11:59.850Z,2.80
2022-09-30T09:14:45.047Z,2.50
2022-09-30T09:17:25.478Z,2.30
2022-09-30T09:20:02.985Z,2.10
2022-09-30T09:22:34.404Z,2.50
2022-09-30T09:25:13.497Z,2.30
2022-09-30T09:27:51.221Z,2.50
2022-09-30T09:30:23.946Z,2.40
2022-09-30T09:32:56.764Z,2.20
2022-09-30T09:35:36.476Z,2.40
2022-09-30T09:38:25.586Z,2.40
2022-09-30T09:41:06.346Z,3.20
2022-09-30T09:43:48.723Z,2.90
2022-09-30T09:46:26.481Z,2.90
2022-09-30T09:49:29.559Z,2.30
2022-09-30T09:52:20.015Z,3.30
2022-09-30T09:54:51.996Z,3.10
2022-09-30T09:57:32.587Z,2.90
2022-09-30T10:00:19.164Z,2.70
2022-09-30T10:03:00.937Z,2.50
2022-09-30T10:05:38.978Z,2.40
2022-09-30T10:08:17.936Z,2.30
2022-09-30T10:10:53.347Z,2.70
2022-09-30T10:13:26.982Z,2.80
2022-09-30T10:16:02.656Z,2.50
2022-09-30T10:18:38.686Z,2.10
2022-09-30T10:21:21.401Z,2.40
2022-09-30T10:23:51.633Z,2.40
2022-09-30T10:26:49.179Z,2.50
2022-09-30T10:29:31.635Z,3.20
2022-09-30T10:32:13.735Z,2.50
2022-09-30T10:34:48.671Z,2.30
2022-09-30T10:37:23.100Z,2.40
2022-09-30T10:40:02.336Z,2.80
2022-09-30T10:42:34.707Z,3.50
2022-09-30T10:45:16.560Z,3.50
2022-09-30T10:47:49.617Z,2.90
2022-09-30T10:50:24.997Z,3.20
2022-09-30T10:52:58.845Z,2.90
2022-09-30T10:55:41.657Z,3.10
2022-09-30T10:58:25.913Z,3.40
2022-09-30T11:01:02.651Z,2.80
2022-09-30T11:03:45.402Z,3.20
2022-09-30T11:06:15.172Z,2.90
2022-09-30T11:08:58.953Z,3.00
2022-09-30T11:11:38.961Z,2.90
2022-09-30T11:14:33.089Z,2.80
2022-09-30T11:17:10.709Z,3.10
2022-09-30T11:20:06.261Z,2.60
2022-09-30T11:22:55.782Z,3.10
2022-09-30T11:25:32.613Z,4.00
2022-09-30T11:28:24.486Z,2.50
2022-09-30T11:31:07.340Z,2.70
2022-09-30T11:33:51.690Z,4.70
2022-09-30T11:36:32.058Z,6.00
2022-09-30T11:39:20.568Z,4.00
2022-09-30T11:41:58.792Z,4.00
2022-09-30T11:44:33.642Z,4.80
2022-09-30T11:47:25.813Z,5.70
2022-09-30T11:50:10.563Z,6.20
2022-09-30T11:52:54.156Z,3.30
2022-09-30T11:55:37.237Z,3.30
2022-09-30T11:58:39.320Z,2.80
2022-09-30T12:01:11.301Z,2.60
2022-09-30T12:03:48.143Z,2.80
2022-09-30T12:06:25.986Z,3.30
2022-09-30T12:09:03.384Z,3.00
2022-09-30T12:11:42.344Z,2.60
2022-09-30T12:14:24.027Z,2.70
2022-09-30T12:16:56.217Z,2.80
2022-09-30T12:19:34.193Z,3.30
2022-09-30T12:22:11.311Z,2.90
2022-09-30T12:24:43.970Z,2.70
2022-09-30T12:39:25.575Z,2.70
2022-09-30T12:43:05.780Z,2.30
2022-09-30T12:45:59.766Z,2.40
2022-09-30T12:48:37.227Z,2.30
2022-09-30T12:51:07.824Z,2.40
2022-09-30T12:53:42.125Z,2.60
2022-09-30T12:56:15.255Z,2.10
2022-09-30T12:58:48.865Z,2.20
2022-09-30T13:01:23.663Z,2.40
2022-09-30T13:04:16.701Z,2.80
2022-09-30T13:07:16.291Z,2.20
2022-09-30T13:10:02.833Z,3.00
2022-09-30T13:12:44.030Z,2.20
2022-09-30T13:15:42.400Z,2.40
2022-09-30T13:18:47.477Z,3.80
2022-09-30T13:21:22.937Z,3.50
2022-09-30T13:23:56.001Z,4.20
2022-09-30T13:26:48.619Z,3.70
2022-09-30T13:29:37.687Z,3.30
2022-09-30T13:32:14.501Z,2.60
2022-09-30T13:34:56.104Z,2.90
2022-09-30T13:37:40.915Z,2.70
2022-09-30T13:40:37.558Z,2.40
2022-09-30T13:43:18.947Z,2.30
2022-09-30T13:45:51.415Z,2.80
2022-09-30T13:48:25.886Z,2.60
2022-09-30T13:50:59.342Z,2.20
2022-09-30T13:53:32.294Z,2.50
2022-09-30T13:56:06.516Z,2.50
2022-09-30T13:59:02.929Z,2.40
2022-09-30T14:01:52.967Z,2.50
2022-09-30T14:04:49.399Z,2.30
2022-09-30T14:07:37.237Z,2.30
2022-09-30T14:10:24.498Z,2.20
2022-09-30T14:13:07.881Z,2.40
2022-09-30T14:16:08.631Z,2.20
2022-09-30T14:19:09.643Z,2.20
2022-09-30T14:21:44.812Z,2.30
2022-09-30T14:24:17.055Z,2.10
2022-09-30T14:27:07.455Z,2.00
2022-09-30T14:29:43.475Z,2.00
2022-09-30T14:32:18.265Z,2.40
2022-09-30T14:34:48.652Z,2.00
2022-09-30T14:37:25.535Z,2.30
2022-09-30T14:39:55.256Z,2.20
2022-09-30T14:42:31.164Z,2.10
2022-09-30T14:45:04.029Z,2.00
2022-09-30T14:47:37.941Z,2.40
2022-09-30T14:50:17.494Z,2.20
2022-09-30T14:52:54.204Z,2.60
2022-09-30T14:55:27.629Z,2.60
2022-09-30T14:58:21.111Z,2.50
2022-09-30T15:00:59.226Z,2.70
2022-09-30T15:03:30.237Z,2.30
2022-09-30T15:05:59.668Z,2.70
2022-09-30T15:08:29.047Z,2.50
2022-09-30T15:10:58.435Z,2.60
2022-09-30T15:13:31.420Z,2.80
2022-09-30T15:29:38.054Z,3.40
2022-09-30T15:45:02.702Z,3.40
2022-09-30T16:02:24.767Z,2.40
2022-09-30T16:04:54.671Z,2.20
2022-09-30T16:07:28.023Z,2.50
2022-09-30T16:09:59.179Z,2.50
2022-09-30T16:12:35.111Z,2.60
2022-09-30T16:15:15.040Z,2.40
2022-09-30T16:17:49.509Z,2.50
2022-09-30T16:20:25.153Z,2.70
2022-09-30T16:22:56.294Z,2.20
2022-09-30T16:25:28.311Z,2.30
2022-09-30T16:27:59.961Z,2.50
2022-09-30T16:30:31.660Z,2.30
2022-09-30T16:33:04.915Z,2.00
2022-09-30T16:35:34.526Z,2.10
2022-09-30T16:38:06.311Z,2.00
2022-09-30T16:40:37.424Z,2.20
2022-09-30T16:43:10.558Z,2.20
2022-09-30T16:45:41.131Z,2.30
2022-09-30T16:48:16.282Z,1.80
2022-09-30T16:50:50.982Z,2.10
2022-09-30T17:05:42.593Z,2.60
2022-09-30T17:08:13.862Z,2.30
2022-09-30T17:10:45.715Z,3.70
2022-09-30T17:13:15.755Z,5.30
2022-09-30T17:15:50.274Z,4.60
2022-09-30T17:18:20.204Z,5.60
2022-09-30T17:20:52.229Z,6.60
2022-09-30T17:23:22.967Z,6.50
2022-09-30T17:25:53.326Z,5.90
2022-09-30T17:28:22.463Z,6.60
2022-09-30T17:30:52.619Z,6.30
2022-09-30T17:33:24.528Z,7.10
2022-09-30T17:35:59.520Z,6.90
2022-09-30T17:38:37.220Z,6.90
2022-09-30T17:41:25.862Z,7.20
2022-09-30T17:43:58.577Z,6.90
2022-09-30T17:46:27.786Z,7.00
2022-09-30T17:48:57.124Z,6.60
2022-09-30T17:51:26.236Z,6.90
2022-09-30T17:53:57.855Z,6.80
2022-09-30T17:56:28.507Z,7.20
2022-09-30T17:59:01.406Z,6.00
2022-09-30T18:01:32.626Z,5.90
2022-09-30T18:04:03.093Z,5.40
2022-09-30T18:06:45.806Z,6.10
2022-09-30T18:09:14.991Z,5.50
2022-09-30T18:11:44.791Z,5.80
2022-09-30T18:14:15.730Z,5.60
2022-09-30T18:16:44.820Z,6.30
2022-09-30T18:21:44.335Z,5.30
2022-09-30T18:24:16.309Z,4.60
2022-09-30T18:26:46.189Z,5.90
2022-09-30T18:29:15.335Z,5.20
2022-09-30T18:31:45.712Z,4.90
2022-09-30T18:34:16.730Z,5.60
2022-09-30T18:36:45.825Z,4.70
2022-09-30T18:39:14.896Z,4.70
2022-09-30T18:41:45.807Z,5.20
2022-09-30T18:44:15.469Z,5.00
2022-09-30T18:46:44.818Z,4.40
2022-09-30T18:49:13.995Z,4.40
2022-09-30T18:51:43.160Z,4.50
2022-09-30T18:54:14.918Z,4.00
2022-09-30T18:56:44.241Z,4.30
2022-09-30T18:59:18.176Z,3.90
2022-09-30T19:01:50.128Z,4.20
2022-09-30T19:04:19.848Z,4.10
2022-09-30T19:06:58.383Z,4.50
2022-09-30T19:09:27.902Z,4.50
2022-09-30T19:11:57.636Z,5.10
2022-09-30T19:14:30.341Z,4.30
2022-09-30T19:17:02.046Z,4.80
2022-09-30T19:19:31.830Z,4.50
2022-09-30T19:22:02.785Z,4.40
2022-09-30T19:24:31.970Z,6.20
2022-09-30T19:27:01.472Z,4.70
2022-09-30T19:29:30.939Z,4.40
2022-09-30T19:32:02.891Z,4.40
2022-09-30T19:34:34.839Z,4.70
2022-09-30T19:37:03.945Z,4.50
2022-09-30T19:39:44.873Z,4.70
2022-09-30T19:42:17.946Z,5.00
2022-09-30T19:44:47.577Z,4.40
2022-09-30T19:47:18.210Z,4.20
2022-09-30T19:49:47.443Z,4.80
2022-09-30T19:52:21.886Z,4.70
2022-09-30T19:54:54.472Z,4.70
2022-09-30T19:57:24.824Z,4.30
2022-09-30T19:59:54.299Z,4.60
2022-09-30T20:02:32.625Z,3.90
2022-09-30T20:05:03.370Z,5.00
2022-09-30T20:07:32.719Z,5.50
2022-09-30T20:10:01.861Z,4.80
2022-09-30T20:12:31.977Z,4.30
2022-09-30T20:15:19.381Z,5.10
2022-09-30T20:17:48.565Z,5.30
2022-09-30T20:20:36.582Z,5.00
2022-09-30T20:25:35.957Z,4.70
2022-09-30T20:28:05.807Z,4.70
2022-09-30T20:30:40.706Z,5.20
2022-09-30T20:33:10.582Z,5.00
2022-09-30T20:35:43.606Z,5.00
2022-09-30T20:38:24.376Z,4.80
2022-09-30T20:40:57.773Z,4.90
2022-09-30T20:43:28.511Z,4.70
2022-09-30T20:46:00.793Z,5.10
2022-09-30T20:48:34.320Z,4.40
2022-09-30T20:51:06.916Z,4.70
2022-09-30T20:53:39.244Z,4.80
2022-09-30T20:56:11.903Z,5.40
2022-09-30T20:58:41.726Z,5.10
2022-09-30T21:01:15.145Z,4.60
2022-09-30T21:03:49.794Z,5.30
2022-09-30T21:06:21.992Z,4.90
2022-09-30T21:08:52.285Z,5.50
2022-09-30T21:11:23.145Z,5.00
2022-09-30T21:13:53.417Z,4.90
2022-09-30T21:16:26.170Z,5.00
2022-09-30T21:18:59.124Z,5.40
2022-09-30T21:21:28.670Z,6.30
2022-09-30T21:23:59.409Z,4.90
2022-09-30T21:26:29.496Z,5.50
2022-09-30T21:28:59.564Z,5.00
2022-09-30T21:34:38.934Z,5.10
2022-09-30T21:37:08.642Z,5.20
2022-09-30T21:39:37.679Z,4.60
2022-09-30T21:42:08.257Z,4.80
2022-09-30T21:47:15.222Z,5.30
2022-09-30T21:49:46.407Z,5.90
2022-09-30T21:52:15.710Z,5.20
2022-09-30T21:54:45.498Z,7.00
2022-09-30T21:57:16.422Z,8.20
2022-09-30T21:59:50.284Z,7.50
2022-09-30T22:02:21.539Z,6.90
2022-09-30T22:04:52.171Z,7.60
2022-09-30T22:07:24.548Z,7.10
2022-09-30T22:09:53.746Z,8.20
2022-09-30T22:12:23.052Z,7.10
2022-09-30T22:14:53.063Z,6.30
2022-09-30T22:17:22.106Z,6.60
2022-09-30T22:19:51.273Z,8.30
2022-09-30T22:22:20.371Z,8.00
2022-09-30T22:24:49.350Z,6.80
2022-09-30T22:27:18.630Z,6.80
2022-09-30T22:29:48.425Z,6.90
2022-09-30T22:32:17.432Z,7.30
2022-09-30T22:35:04.992Z,7.50
2022-09-30T22:38:00.822Z,6.70
2022-09-30T22:40:30.265Z,6.50
2022-09-30T22:42:59.126Z,6.50
2022-09-30T22:45:28.806Z,6.70
2022-09-30T22:47:58.090Z,7.00
2022-09-30T22:50:28.202Z,8.50
2022-09-30T22:52:57.976Z,7.10
2022-09-30T22:55:27.096Z,7.00
2022-09-30T22:57:56.197Z,7.40
2022-09-30T23:00:25.558Z,7.90
2022-09-30T23:02:56.004Z,7.60
2022-09-30T23:05:26.172Z,7.20
2022-09-30T23:07:57.924Z,7.40
2022-09-30T23:10:30.896Z,7.50
2022-09-30T23:13:00.547Z,7.20
2022-09-30T23:15:29.660Z,7.90
2022-09-30T23:17:59.114Z,7.40
2022-09-30T23:20:28.395Z,6.80
2022-09-30T23:22:57.340Z,7.30
2022-09-30T23:25:26.333Z,7.30
2022-09-30T23:27:56.075Z,7.20
2022-09-30T23:30:26.319Z,6.80
2022-09-30T23:32:55.334Z,7.10
2022-09-30T23:35:24.430Z,7.50
2022-09-30T23:37:53.321Z,6.90
2022-09-30T23:40:22.336Z,7.20
2022-09-30T23:42:54.864Z,7.10
2022-09-30T23:45:23.799Z,6.80
2022-09-30T23:47:55.926Z,6.70
2022-09-30T23:50:24.931Z,7.60
2022-09-30T23:52:54.047Z,7.50
2022-09-30T23:55:23.084Z,6.80
2022-09-30T23:57:52.258Z,7.00
